createdAt,value
2018-06-22T00:02:22.353Z,74.15
2018-06-22T00:04:49.455Z,75.37
2018-06-22T00:07:16.598Z,74.42
2018-06-22T00:09:43.777Z,73.79
2018-06-22T00:12:10.963Z,74.12
2018-06-22T00:14:38.286Z,75.63
2018-06-22T00:17:05.540Z,76.78
2018-06-22T00:19:32.810Z,77.09
2018-06-22T00:22:00.038Z,75.80
2018-06-22T00:24:27.351Z,76.70
2018-06-22T00:26:54.695Z,76.86
2018-06-22T00:29:21.861Z,76.57
2018-06-22T00:31:49.059Z,76.35
2018-06-22T00:34:16.168Z,76.52
2018-06-22T00:36:43.304Z,77.52
2018-06-22T00:39:11.407Z,75.53
2018-06-22T00:41:38.599Z,75.33
2018-06-22T00:44:05.998Z,77.23
2018-06-22T00:46:33.181Z,75.65
2018-06-22T00:49:00.320Z,75.64
2018-06-22T00:51:27.459Z,75.90
2018-06-22T00:54:14.235Z,78.12
2018-06-22T00:56:41.466Z,76.33
2018-06-22T00:59:08.814Z,75.22
2018-06-22T01:01:36.140Z,78.04
2018-06-22T01:04:03.514Z,75.97
2018-06-22T01:06:30.672Z,77.56
2018-06-22T01:08:57.876Z,76.92
2018-06-22T01:11:25.029Z,75.67
2018-06-22T01:13:52.224Z,78.40
2018-06-22T01:16:19.414Z,78.88
2018-06-22T01:18:46.947Z,78.90
2018-06-22T01:21:14.197Z,78.26
2018-06-22T01:23:41.515Z,77.67
2018-06-22T01:26:08.871Z,76.65
2018-06-22T01:28:36.150Z,76.75
2018-06-22T01:31:03.981Z,75.73
2018-06-22T01:33:31.383Z,77.04
2018-06-22T01:35:58.500Z,77.22
2018-06-22T01:38:26.218Z,77.67
2018-06-22T01:40:53.545Z,76.26
2018-06-22T01:43:20.891Z,75.55
2018-06-22T01:45:49.069Z,75.66
2018-06-22T01:48:16.336Z,77.31
2018-06-22T01:50:44.133Z,77.39
2018-06-22T01:53:12.180Z,77.97
2018-06-22T01:55:40.070Z,77.09
2018-06-22T01:58:07.786Z,76.52
2018-06-22T02:00:36.442Z,76.99
2018-06-22T02:03:03.754Z,76.07
2018-06-22T02:05:30.973Z,76.56
2018-06-22T02:07:58.311Z,76.82
2018-06-22T02:10:25.578Z,78.17
2018-06-22T02:12:52.751Z,77.83
2018-06-22T02:15:19.905Z,77.99
2018-06-22T02:17:47.527Z,78.21
2018-06-22T02:20:14.865Z,79.63
2018-06-22T02:22:42.032Z,79.89
2018-06-22T02:25:09.124Z,78.02
2018-06-22T02:27:36.277Z,77.89
2018-06-22T02:30:03.598Z,77.70
2018-06-22T02:32:31.413Z,78.23
2018-06-22T02:34:58.722Z,77.72
2018-06-22T02:37:26.229Z,79.31
2018-06-22T02:39:53.357Z,78.74
2018-06-22T02:42:20.574Z,78.67
2018-06-22T02:44:47.804Z,77.59
2018-06-22T02:47:14.941Z,77.10
2018-06-22T02:49:42.455Z,77.74
2018-06-22T02:52:10.644Z,77.11
2018-06-22T02:54:38.447Z,77.82
2018-06-22T02:57:05.910Z,76.22
2018-06-22T02:59:33.178Z,77.90
2018-06-22T03:02:00.407Z,76.21
2018-06-22T03:04:27.745Z,76.09
2018-06-22T03:06:55.123Z,78.05
2018-06-22T03:09:22.316Z,75.47
2018-06-22T03:11:49.429Z,75.90
2018-06-22T03:14:16.570Z,75.92
2018-06-22T03:16:43.705Z,76.86
2018-06-22T03:19:11.059Z,75.63
2018-06-22T03:21:38.979Z,75.02
2018-06-22T03:24:06.693Z,75.95
2018-06-22T03:26:33.923Z,73.72
2018-06-22T03:29:01.195Z,76.02
2018-06-22T03:31:28.417Z,75.09
2018-06-22T03:33:55.827Z,72.95
2018-06-22T03:36:22.995Z,73.00
2018-06-22T03:38:50.207Z,73.49
2018-06-22T03:41:17.428Z,73.99
2018-06-22T03:43:44.615Z,73.41
2018-06-22T03:46:11.867Z,73.35
2018-06-22T03:48:39.078Z,73.33
2018-06-22T03:51:06.349Z,75.34
2018-06-22T03:53:33.568Z,73.61
2018-06-22T03:56:00.765Z,72.89
2018-06-22T03:58:28.193Z,72.58
2018-06-22T04:00:56.562Z,73.19
2018-06-22T04:03:23.952Z,75.66
2018-06-22T04:05:51.251Z,73.28
2018-06-22T04:08:19.832Z,72.13
2018-06-22T04:10:59.118Z,73.85
2018-06-22T04:13:38.012Z,71.80
2018-06-22T04:16:06.407Z,70.35
2018-06-22T04:18:33.791Z,72.29
2018-06-22T04:21:02.075Z,72.84
2018-06-22T04:23:29.262Z,72.70
2018-06-22T04:25:56.713Z,71.20
2018-06-22T04:28:27.784Z,73.21
2018-06-22T04:30:58.789Z,71.30
2018-06-22T04:33:27.858Z,70.72
2018-06-22T04:35:59.215Z,70.90
2018-06-22T04:38:38.656Z,71.49
2018-06-22T04:41:06.079Z,71.27
2018-06-22T04:43:34.384Z,70.51
2018-06-22T04:46:01.894Z,70.76
2018-06-22T04:48:29.167Z,69.54
2018-06-22T04:50:56.291Z,69.84
2018-06-22T04:53:23.428Z,69.59
2018-06-22T04:55:50.841Z,70.60
2018-06-22T04:58:17.960Z,69.54
2018-06-22T05:00:45.248Z,69.85
2018-06-22T05:03:12.647Z,69.64
2018-06-22T05:05:39.759Z,69.27
2018-06-22T05:08:07.203Z,69.24
2018-06-22T05:10:35.125Z,69.12
2018-06-22T05:13:02.364Z,68.34
2018-06-22T05:15:29.563Z,68.85
2018-06-22T05:17:56.732Z,68.12
2018-06-22T05:20:25.020Z,68.76
2018-06-22T05:22:52.335Z,68.32
2018-06-22T05:25:20.073Z,69.39
2018-06-22T05:27:47.255Z,69.99
2018-06-22T05:30:14.419Z,69.74
2018-06-22T05:32:41.788Z,69.82
2018-06-22T05:35:09.094Z,70.20
2018-06-22T05:37:36.413Z,69.07
2018-06-22T05:40:03.720Z,68.79
2018-06-22T05:42:30.853Z,67.22
2018-06-22T05:44:58.096Z,67.87
2018-06-22T05:47:25.294Z,67.32
2018-06-22T05:49:52.733Z,65.91
2018-06-22T05:52:21.658Z,65.95
2018-06-22T05:54:49.546Z,66.07
2018-06-22T05:57:17.848Z,64.84
2018-06-22T05:59:45.907Z,65.42
2018-06-22T06:02:13.193Z,65.62
2018-06-22T06:04:40.442Z,64.59
2018-06-22T06:07:07.719Z,66.06
2018-06-22T06:09:35.349Z,64.95
2018-06-22T06:12:05.019Z,64.33
2018-06-22T06:14:34.102Z,65.01
2018-06-22T06:17:04.739Z,65.18
2018-06-22T06:19:32.570Z,65.65
2018-06-22T06:21:59.987Z,65.23
2018-06-22T06:24:27.856Z,64.49
2018-06-22T06:26:55.196Z,65.81
2018-06-22T06:29:22.333Z,64.99
2018-06-22T06:31:49.472Z,65.80
2018-06-22T06:34:19.070Z,65.87
2018-06-22T06:36:48.550Z,68.04
2018-06-22T06:39:15.767Z,67.19
2018-06-22T06:41:42.941Z,69.40
2018-06-22T06:44:10.231Z,68.12
2018-06-22T06:46:38.545Z,69.14
2018-06-22T06:49:06.080Z,69.02
2018-06-22T06:51:33.335Z,68.69
2018-06-22T06:54:00.568Z,68.30
2018-06-22T06:56:27.782Z,67.08
2018-06-22T06:58:54.943Z,66.83
2018-06-22T07:01:22.391Z,69.50
2018-06-22T07:03:49.528Z,68.42
2018-06-22T07:06:16.727Z,65.83
2018-06-22T07:08:43.989Z,64.72
2018-06-22T07:11:11.122Z,63.25
2018-06-22T07:13:38.392Z,62.53
2018-06-22T07:16:05.636Z,66.65
2018-06-22T07:18:33.111Z,63.75
2018-06-22T07:21:00.224Z,64.24
2018-06-22T07:23:28.145Z,64.90
2018-06-22T07:25:55.798Z,65.90
2018-06-22T07:28:23.662Z,67.17
2018-06-22T07:30:50.869Z,64.80
2018-06-22T07:33:18.111Z,65.82
2018-06-22T07:35:45.439Z,64.00
2018-06-22T07:38:12.612Z,63.82
2018-06-22T07:40:39.756Z,62.08
2018-06-22T07:43:06.878Z,62.94
2018-06-22T07:45:34.109Z,61.85
2018-06-22T07:48:02.155Z,62.12
2018-06-22T07:50:29.392Z,59.07
2018-06-22T07:52:56.686Z,59.92
2018-06-22T07:55:23.956Z,58.86
2018-06-22T07:57:51.267Z,58.67
2018-06-22T08:00:18.446Z,60.38
2018-06-22T08:02:45.555Z,59.83
2018-06-22T08:05:13.529Z,59.44
2018-06-22T08:07:40.709Z,57.99
2018-06-22T08:10:07.925Z,60.26
2018-06-22T08:12:35.080Z,56.99
2018-06-22T08:15:02.319Z,58.19
2018-06-22T08:17:30.729Z,56.66
2018-06-22T08:19:57.944Z,57.64
2018-06-22T08:22:25.408Z,58.51
2018-06-22T08:24:53.095Z,59.32
2018-06-22T08:27:20.317Z,60.40
2018-06-22T08:29:47.528Z,59.70
2018-06-22T08:32:14.805Z,58.93
2018-06-22T08:34:42.104Z,58.53
2018-06-22T08:37:09.333Z,57.83
2018-06-22T08:39:37.058Z,57.53
2018-06-22T08:42:04.419Z,56.39
2018-06-22T08:44:31.591Z,56.99
2018-06-22T08:46:58.720Z,56.00
2018-06-22T08:49:25.848Z,56.55
2018-06-22T08:51:53.014Z,55.27
2018-06-22T08:54:20.155Z,54.33
2018-06-22T08:56:47.533Z,52.54
2018-06-22T08:59:14.739Z,54.23
2018-06-22T09:01:42.022Z,52.16
2018-06-22T09:04:09.261Z,52.44
2018-06-22T09:06:36.636Z,52.96
2018-06-22T09:09:06.216Z,53.50
2018-06-22T09:11:34.646Z,53.66
2018-06-22T09:14:01.846Z,53.62
2018-06-22T09:16:29.010Z,54.47
2018-06-22T09:18:56.184Z,54.97
2018-06-22T09:21:23.372Z,55.96
2018-06-22T09:23:50.556Z,59.13
2018-06-22T09:26:17.665Z,61.36
2018-06-22T09:28:44.844Z,65.10
2018-06-22T09:31:12.048Z,62.30
2018-06-22T09:33:39.151Z,61.66
2018-06-22T09:36:06.295Z,56.91
2018-06-22T09:38:33.526Z,53.73
2018-06-22T09:41:00.732Z,52.94
2018-06-22T09:43:28.058Z,56.00
2018-06-22T09:45:55.406Z,57.92
2018-06-22T09:48:22.615Z,63.99
2018-06-22T09:50:49.748Z,67.74
2018-06-22T09:53:16.865Z,70.62
2018-06-22T09:55:43.984Z,72.47
2018-06-22T09:58:11.082Z,73.78
2018-06-22T10:00:38.241Z,69.07
2018-06-22T10:03:05.451Z,68.13
2018-06-22T10:05:32.670Z,67.21
2018-06-22T10:07:59.872Z,65.64
2018-06-22T10:10:27.213Z,62.42
2018-06-22T10:12:54.569Z,62.06
2018-06-22T10:15:22.805Z,61.80
2018-06-22T10:17:49.992Z,63.86
2018-06-22T10:20:17.132Z,57.39
2018-06-22T10:22:44.337Z,61.29
2018-06-22T10:25:11.520Z,62.80
2018-06-22T10:27:38.702Z,64.79
2018-06-22T10:30:05.845Z,61.86
2018-06-22T10:32:33.188Z,63.26
2018-06-22T10:35:00.436Z,63.54
2018-06-22T10:37:27.684Z,64.69
2018-06-22T10:39:55.208Z,62.77
2018-06-22T10:42:22.457Z,62.96
2018-06-22T10:44:49.608Z,60.70
2018-06-22T10:47:17.094Z,62.63
2018-06-22T10:49:44.227Z,59.79
2018-06-22T10:52:11.487Z,58.30
2018-06-22T10:54:38.676Z,57.49
2018-06-22T10:57:05.816Z,52.58
2018-06-22T10:59:33.046Z,53.07
2018-06-22T11:02:00.266Z,53.63
2018-06-22T11:04:27.803Z,50.88
2018-06-22T11:06:55.134Z,55.08
2018-06-22T11:09:22.387Z,44.81
2018-06-22T11:11:49.512Z,45.28
2018-06-22T11:14:16.629Z,47.33
2018-06-22T11:16:44.099Z,47.09
2018-06-22T11:19:11.316Z,41.48
2018-06-22T11:21:38.479Z,40.35
2018-06-22T11:24:05.885Z,39.34
2018-06-22T11:26:33.044Z,38.47
2018-06-22T11:29:00.509Z,37.30
2018-06-22T11:31:27.816Z,35.63
2018-06-22T11:33:55.337Z,36.93
2018-06-22T11:36:22.656Z,40.85
2018-06-22T11:38:49.805Z,51.46
2018-06-22T11:41:18.599Z,60.33
2018-06-22T11:43:45.686Z,62.87
2018-06-22T11:46:14.920Z,65.28
2018-06-22T11:48:42.049Z,70.32
2018-06-22T11:51:09.219Z,71.23
2018-06-22T11:53:40.353Z,73.19
2018-06-22T11:56:07.700Z,77.49
2018-06-22T11:58:34.893Z,74.00
2018-06-22T12:01:02.188Z,73.69
2018-06-22T12:03:29.385Z,73.31
2018-06-22T12:05:56.714Z,74.96
2018-06-22T12:08:24.474Z,77.57
2018-06-22T12:10:55.362Z,74.67
2018-06-22T12:13:22.504Z,69.56
2018-06-22T12:15:49.675Z,66.19
2018-06-22T12:18:16.803Z,59.28
2018-06-22T12:20:43.974Z,60.58
2018-06-22T12:23:12.225Z,56.38
2018-06-22T12:25:39.384Z,60.58
2018-06-22T12:28:06.622Z,55.35
2018-06-22T12:30:33.880Z,51.42
2018-06-22T12:33:01.169Z,47.76
2018-06-22T12:35:28.632Z,48.91
2018-06-22T12:37:55.931Z,48.25
2018-06-22T12:40:24.593Z,48.00
2018-06-22T12:42:51.864Z,50.13
2018-06-22T12:45:19.044Z,48.50
2018-06-22T12:47:46.222Z,51.63
2018-06-22T12:50:13.390Z,49.43
2018-06-22T12:52:40.569Z,48.36
2018-06-22T12:55:07.724Z,48.04
2018-06-22T12:57:35.004Z,48.55
2018-06-22T13:00:02.257Z,49.40
2018-06-22T13:02:29.599Z,47.41
2018-06-22T13:04:56.963Z,46.13
2018-06-22T13:07:27.828Z,47.98
2018-06-22T13:09:55.168Z,49.04
2018-06-22T13:12:22.373Z,46.86
2018-06-22T13:14:49.582Z,47.68
2018-06-22T13:17:16.837Z,46.29
2018-06-22T13:19:44.364Z,45.83
2018-06-22T13:22:11.685Z,44.13
2018-06-22T13:24:38.860Z,43.67
2018-06-22T13:27:07.247Z,41.00
2018-06-22T13:29:35.685Z,41.42
2018-06-22T13:32:04.507Z,46.42
2018-06-22T13:34:32.606Z,39.69
2018-06-22T13:37:00.516Z,40.58
2018-06-22T13:39:28.716Z,40.56
2018-06-22T13:41:56.239Z,39.54
2018-06-22T13:44:23.600Z,39.69
2018-06-22T13:46:54.241Z,39.50
2018-06-22T13:49:24.599Z,40.68
2018-06-22T13:51:51.971Z,42.60
2018-06-22T13:54:19.139Z,40.77
2018-06-22T13:56:46.521Z,41.44
2018-06-22T13:59:13.744Z,41.83
2018-06-22T14:01:44.225Z,40.71
2018-06-22T14:04:17.201Z,40.64
2018-06-22T14:06:49.972Z,39.33
2018-06-22T14:09:17.446Z,39.00
2018-06-22T14:11:44.814Z,39.86
2018-06-22T14:14:12.286Z,37.75
2018-06-22T14:16:40.045Z,38.16
2018-06-22T14:19:07.751Z,41.12
2018-06-22T14:21:35.376Z,36.52
2018-06-22T14:24:02.687Z,38.41
2018-06-22T14:26:29.845Z,36.78
2018-06-22T14:28:57.015Z,37.04
2018-06-22T14:31:24.189Z,39.78
2018-06-22T14:33:51.447Z,39.51
2018-06-22T14:36:18.575Z,42.11
2018-06-22T14:38:45.892Z,43.39
2018-06-22T14:41:13.288Z,46.18
2018-06-22T14:43:40.729Z,49.32
2018-06-22T14:46:08.070Z,55.82
2018-06-22T14:48:35.208Z,59.16
2018-06-22T14:51:02.497Z,55.07
2018-06-22T14:53:37.538Z,57.80
2018-06-22T14:56:12.316Z,60.69
2018-06-22T14:58:45.360Z,52.51
2018-06-22T15:01:18.202Z,53.49
2018-06-22T15:03:51.187Z,52.38
2018-06-22T15:06:24.050Z,50.27
2018-06-22T15:08:51.394Z,52.85
2018-06-22T15:11:18.560Z,44.72
2018-06-22T15:13:48.062Z,43.14
2018-06-22T15:16:16.164Z,41.72
2018-06-22T15:18:43.335Z,40.77
2018-06-22T15:21:10.694Z,42.26
2018-06-22T15:23:37.931Z,41.37
2018-06-22T15:26:05.139Z,37.07
2018-06-22T15:28:32.390Z,33.78
2018-06-22T15:30:59.695Z,29.90
2018-06-22T15:33:32.786Z,26.51
2018-06-22T15:36:05.682Z,28.29
2018-06-22T15:38:39.484Z,23.34
2018-06-22T15:41:12.537Z,23.89
2018-06-22T15:43:45.533Z,21.12
2018-06-22T15:46:18.588Z,22.36
2018-06-22T15:48:51.621Z,26.84
2018-06-22T15:51:24.612Z,27.93
2018-06-22T15:53:57.697Z,29.72
2018-06-22T15:56:25.296Z,30.20
2018-06-22T15:58:52.600Z,29.58
2018-06-22T16:01:19.759Z,29.80
2018-06-22T16:03:52.740Z,30.80
2018-06-22T16:06:20.096Z,31.88
2018-06-22T16:08:48.296Z,32.50
2018-06-22T16:11:15.595Z,34.51
2018-06-22T16:13:47.383Z,35.27
2018-06-22T16:16:20.224Z,37.48
2018-06-22T16:18:53.205Z,35.52
2018-06-22T16:21:26.134Z,37.54
2018-06-22T16:23:58.860Z,36.60
2018-06-22T16:26:31.865Z,40.32
2018-06-22T16:29:00.022Z,39.38
2018-06-22T16:31:27.247Z,35.54
2018-06-22T16:33:55.803Z,36.51
2018-06-22T16:36:24.539Z,36.05
2018-06-22T16:38:51.788Z,38.85
2018-06-22T16:41:19.246Z,40.24
2018-06-22T16:43:46.547Z,37.40
2018-06-22T16:46:13.773Z,39.73
2018-06-22T16:48:40.997Z,41.02
2018-06-22T16:51:08.260Z,42.58
2018-06-22T16:53:35.676Z,42.97
2018-06-22T16:56:02.963Z,41.65
2018-06-22T16:58:35.797Z,44.02
2018-06-22T17:01:02.985Z,44.43
2018-06-22T17:03:30.149Z,55.64
2018-06-22T17:05:57.507Z,58.63
2018-06-22T17:08:30.584Z,58.88
2018-06-22T17:11:03.624Z,60.14
2018-06-22T17:13:36.687Z,63.60
2018-06-22T17:16:11.109Z,59.76
2018-06-22T17:18:44.080Z,61.08
2018-06-22T17:21:11.267Z,62.54
2018-06-22T17:23:38.707Z,60.59
2018-06-22T17:26:06.040Z,58.66
2018-06-22T17:28:33.253Z,61.58
2018-06-22T17:31:00.439Z,60.12
2018-06-22T17:33:27.641Z,59.12
2018-06-22T17:35:54.928Z,61.40
2018-06-22T17:38:22.155Z,60.13
2018-06-22T17:40:49.398Z,61.76
2018-06-22T17:43:16.572Z,58.63
2018-06-22T17:45:43.762Z,58.00
2018-06-22T17:48:10.989Z,58.31
2018-06-22T17:50:38.451Z,59.18
2018-06-22T17:53:05.625Z,58.83
2018-06-22T17:55:32.858Z,59.39
2018-06-22T17:58:00.016Z,58.93
2018-06-22T18:00:32.910Z,64.50
2018-06-22T18:03:05.796Z,66.26
2018-06-22T18:05:38.821Z,66.85
2018-06-22T18:08:10.611Z,70.75
2018-06-22T18:11:43.548Z,62.97
2018-06-22T18:14:11.027Z,59.98
2018-06-22T18:16:38.614Z,63.50
2018-06-22T18:19:05.850Z,61.58
2018-06-22T18:21:33.016Z,61.96
2018-06-22T18:24:00.261Z,62.17
2018-06-22T18:26:28.007Z,61.54
2018-06-22T18:28:55.242Z,62.66
2018-06-22T18:31:22.441Z,57.79
2018-06-22T18:33:49.730Z,58.05
2018-06-22T18:36:17.019Z,55.79
2018-06-22T18:38:44.451Z,53.71
2018-06-22T18:41:11.775Z,54.79
2018-06-22T18:43:44.799Z,50.87
2018-06-22T18:46:12.122Z,51.49
2018-06-22T18:48:39.508Z,49.79
2018-06-22T18:51:07.417Z,50.59
2018-06-22T18:53:41.176Z,51.24
2018-06-22T18:56:14.043Z,50.37
2018-06-22T18:58:47.014Z,50.04
2018-06-22T19:01:21.002Z,49.97
2018-06-22T19:03:49.002Z,50.75
2018-06-22T19:06:16.778Z,49.11
2018-06-22T19:08:44.033Z,50.82
2018-06-22T19:11:11.530Z,50.14
2018-06-22T19:13:39.219Z,49.30
2018-06-22T19:16:06.484Z,49.39
2018-06-22T19:18:38.748Z,49.95
2018-06-22T19:21:06.310Z,49.56
2018-06-22T19:23:33.520Z,49.42
2018-06-22T19:26:00.865Z,49.49
2018-06-22T19:28:28.072Z,50.37
2018-06-22T19:30:55.223Z,49.65
2018-06-22T19:33:22.540Z,50.43
2018-06-22T19:35:49.905Z,51.55
2018-06-22T19:38:17.363Z,50.36
2018-06-22T19:40:44.757Z,50.94
2018-06-22T19:43:17.745Z,52.80
2018-06-22T19:45:50.964Z,50.22
2018-06-22T19:48:24.204Z,51.13
2018-06-22T19:50:57.042Z,50.35
2018-06-22T19:53:29.999Z,50.51
2018-06-22T19:55:57.398Z,49.97
2018-06-22T19:58:24.905Z,51.56
2018-06-22T20:00:52.406Z,50.75
2018-06-22T20:03:20.557Z,50.41
2018-06-22T20:05:48.140Z,51.25
2018-06-22T20:08:15.724Z,51.20
2018-06-22T20:10:42.902Z,50.99
2018-06-22T20:13:10.062Z,50.68
2018-06-22T20:15:37.520Z,50.62
2018-06-22T20:18:04.866Z,50.24
2018-06-22T20:20:32.703Z,50.71
2018-06-22T20:22:59.966Z,51.10
2018-06-22T20:25:32.849Z,51.44
2018-06-22T20:27:59.979Z,51.22
2018-06-22T20:30:28.336Z,51.38
2018-06-22T20:32:56.025Z,51.51
2018-06-22T20:35:29.025Z,53.11
2018-06-22T20:38:01.981Z,50.80
2018-06-22T20:40:34.808Z,51.38
2018-06-22T20:43:08.279Z,52.46
2018-06-22T20:45:41.244Z,52.08
2018-06-22T20:48:14.350Z,52.11
2018-06-22T20:50:41.724Z,52.74
2018-06-22T20:53:08.923Z,52.32
2018-06-22T20:55:36.112Z,53.02
2018-06-22T20:58:04.533Z,52.91
2018-06-22T21:00:31.770Z,53.35
2018-06-22T21:02:59.298Z,53.26
2018-06-22T21:05:26.413Z,54.14
2018-06-22T21:07:53.607Z,54.71
2018-06-22T21:10:20.856Z,53.63
2018-06-22T21:12:48.146Z,55.43
2018-06-22T21:15:15.328Z,55.32
2018-06-22T21:17:42.843Z,55.50
2018-06-22T21:20:10.065Z,54.63
2018-06-22T21:22:37.255Z,55.23
2018-06-22T21:25:04.888Z,55.17
2018-06-22T21:27:37.649Z,54.85
2018-06-22T21:30:10.832Z,55.86
2018-06-22T21:32:43.839Z,56.25
2018-06-22T21:35:16.879Z,56.50
2018-06-22T21:37:49.730Z,56.57
2018-06-22T21:40:16.944Z,56.35
2018-06-22T21:42:44.246Z,57.21
2018-06-22T21:45:11.519Z,56.26
2018-06-22T21:47:38.707Z,55.98
2018-06-22T21:50:05.920Z,58.64
2018-06-22T21:52:33.034Z,57.17
2018-06-22T21:55:00.156Z,57.55
2018-06-22T21:57:27.363Z,57.71
2018-06-22T21:59:54.539Z,56.56
2018-06-22T22:02:21.773Z,58.01
2018-06-22T22:04:49.373Z,56.85
2018-06-22T22:07:16.608Z,57.65
2018-06-22T22:09:43.917Z,57.83
2018-06-22T22:12:12.363Z,58.01
2018-06-22T22:14:40.338Z,58.75
2018-06-22T22:17:07.569Z,57.80
2018-06-22T22:19:34.787Z,57.94
2018-06-22T22:22:01.972Z,57.90
2018-06-22T22:24:29.113Z,58.02
2018-06-22T22:26:56.300Z,59.13
2018-06-22T22:29:23.465Z,61.26
2018-06-22T22:31:50.594Z,60.28
2018-06-22T22:34:19.008Z,61.41
2018-06-22T22:36:46.207Z,61.73
2018-06-22T22:39:13.461Z,61.39
2018-06-22T22:41:40.725Z,62.26
2018-06-22T22:44:08.592Z,62.69
2018-06-22T22:46:35.727Z,62.56
2018-06-22T22:49:03.513Z,62.09
2018-06-22T22:51:30.642Z,62.51
2018-06-22T22:53:58.037Z,62.86
2018-06-22T22:56:25.295Z,62.72
2018-06-22T22:58:52.444Z,63.44
2018-06-22T23:01:19.598Z,63.06
2018-06-22T23:03:46.818Z,63.63
2018-06-22T23:06:14.392Z,64.46
2018-06-22T23:08:41.628Z,63.90
2018-06-22T23:11:08.798Z,65.40
2018-06-22T23:13:35.915Z,65.56
2018-06-22T23:16:03.095Z,65.73
2018-06-22T23:18:30.293Z,65.82
2018-06-22T23:20:57.681Z,66.21
2018-06-22T23:23:33.648Z,67.03
2018-06-22T23:26:01.511Z,66.77
2018-06-22T23:28:28.682Z,67.28
2018-06-22T23:30:55.934Z,68.14
2018-06-22T23:33:23.096Z,69.36
2018-06-22T23:35:50.243Z,72.62
2018-06-22T23:38:17.837Z,73.96
2018-06-22T23:40:45.002Z,75.27
2018-06-22T23:43:12.213Z,75.76
2018-06-22T23:45:39.535Z,76.50
2018-06-22T23:48:07.148Z,76.15
2018-06-22T23:50:34.425Z,76.25
2018-06-22T23:53:01.597Z,76.18
2018-06-22T23:55:28.755Z,76.13
2018-06-22T23:57:55.957Z,75.43
